Time;durP1;ratioP1;P1;durP2;ratioP2;P2;SDS_P1;SDS_P2;PMS_P1;PMS_P2;Temp;Humidity;BMP_temperature;BMP_pressure;BME280_temperature;BME280_humidity;BME280_pressure;Samples;Min_cycle;Max_cycle;Signal;HPM_P1;HPM_P2
2022/08/02 13:20:41;;;;;;;4.22;2.72;;;30.30;79.40;;;-144.05;33.35;125687.94;518604;26;20293;-87
2022/08/02 13:23:09;;;;;;;6.05;1.67;;;30.10;78.20;;;-144.05;32.82;125687.94;4935705;29;20168;-90
2022/08/02 13:25:34;;;;;;;2.13;1.60;;;29.80;76.70;;;-144.05;33.61;125687.94;4938013;29;20036;-88
2022/08/02 13:28:00;;;;;;;3.05;1.58;;;29.60;79.00;;;-144.05;33.15;125687.94;4924161;29;20036;-90
2022/08/02 13:30:26;;;;;;;3.42;1.85;;;29.50;77.60;;;-144.05;33.80;125687.94;4939752;29;20030;-89
2022/08/02 13:32:52;;;;;;;2.25;1.45;;;29.80;79.80;;;-144.05;32.49;125687.94;4922320;29;20398;-88
2022/08/02 13:35:19;;;;;;;2.08;1.60;;;29.90;75.30;;;-144.05;32.40;125687.94;4939233;29;20036;-88
2022/08/02 13:37:46;;;;;;;2.25;1.60;;;30.00;76.00;;;-144.05;32.97;125687.94;4925199;29;20027;-90
2022/08/02 13:40:13;;;;;;;3.15;1.55;;;30.10;78.90;;;-144.05;32.14;125687.94;4925211;29;20039;-90
2022/08/02 13:42:41;;;;;;;2.67;1.30;;;30.30;75.10;;;-144.05;32.18;125687.94;4925230;29;20035;-89
2022/08/02 13:45:08;;;;;;;2.40;1.35;;;30.60;75.30;;;-144.05;32.24;125687.94;4924685;29;20100;-89
2022/08/02 13:47:37;;;;;;;1.67;1.42;;;30.80;76.30;;;-144.05;31.72;125687.94;4925567;29;20043;-90
2022/08/02 13:50:05;;;;;;;1.90;1.30;;;30.70;75.00;;;-144.05;31.38;125687.94;4926169;29;20122;-88
2022/08/02 13:52:30;;;;;;;3.63;1.40;;;30.80;71.50;;;-144.05;31.90;125687.94;4920381;29;20043;-88
2022/08/02 13:54:58;;;;;;;3.15;1.45;;;30.90;73.10;;;-144.05;31.10;125687.94;4938076;29;20032;-89
2022/08/02 13:57:27;;;;;;;2.90;1.85;;;30.70;69.80;;;-144.05;32.05;125687.94;4938489;29;20043;-89
2022/08/02 13:59:53;;;;;;;1.88;1.30;;;30.20;70.30;;;-144.05;32.68;125687.94;4938029;29;20545;-89
2022/08/02 14:02:19;;;;;;;3.65;1.73;;;30.00;72.50;;;-144.05;32.38;125687.94;4922117;29;20084;-89
2022/08/02 14:04:45;;;;;;;9.68;1.85;;;30.00;72.10;;;-144.05;32.63;125687.94;4938667;29;20060;-89
2022/08/02 14:07:11;;;;;;;3.50;1.30;;;30.20;73.00;;;-144.05;32.08;125687.94;4922768;29;20296;-90
2022/08/02 14:09:40;;;;;;;3.22;1.70;;;30.20;73.00;;;-144.05;32.04;125687.94;4936754;29;20032;-90
2022/08/02 14:12:08;;;;;;;3.05;1.70;;;30.50;73.80;;;-144.05;31.03;125687.94;4926530;29;20494;-88
2022/08/02 14:14:35;;;;;;;3.17;1.67;;;30.60;70.30;;;-144.05;31.27;125687.94;4945241;29;20042;-89
2022/08/02 14:17:01;;;;;;;3.22;1.58;;;30.60;69.70;;;-144.05;32.51;125687.94;4959423;29;20031;-88
2022/08/02 14:19:27;;;;;;;3.65;1.73;;;30.50;73.10;;;-144.05;31.50;125687.94;4943717;29;20027;-88
2022/08/02 14:21:53;;;;;;;3.08;1.40;;;30.30;70.30;;;-144.05;31.56;125687.94;4943083;29;20063;-88
2022/08/02 14:24:22;;;;;;;2.03;1.33;;;30.30;69.80;;;-144.05;31.73;125687.94;4954533;28;20047;-88
2022/08/02 14:26:49;;;;;;;3.40;1.80;;;30.10;70.90;;;-144.05;32.14;125687.94;4962586;28;20050;-88
2022/08/02 14:29:17;;;;;;;5.22;1.60;;;30.00;71.10;;;-144.05;32.50;125687.94;4942961;29;20035;-89
2022/08/02 14:32:44;;;;;;;;;;;;;;;;;;;;;
2022/08/02 14:35:11;;;;;;;2.97;1.58;;;30.00;74.20;;;-144.05;32.18;125687.94;4953946;29;20045;-90
2022/08/02 14:37:38;;;;;;;6.00;1.80;;;30.20;71.70;;;-144.05;31.71;125687.94;4943340;29;20099;-91
2022/08/02 14:40:05;;;;;;;3.97;1.50;;;30.30;71.40;;;-144.05;31.29;125687.94;4942682;29;20030;-90
2022/08/02 14:42:31;;;;;;;3.65;1.60;;;30.30;69.90;;;-144.05;32.21;125687.94;4943216;29;20035;-90
2022/08/02 14:44:57;;;;;;;5.88;1.70;;;30.30;72.50;;;-144.05;31.84;125687.94;4943015;29;20082;-89
2022/08/02 14:47:23;;;;;;;4.20;1.77;;;30.20;71.70;;;-144.05;31.52;125687.94;4943595;29;20031;-89
2022/08/02 14:49:49;;;;;;;4.95;1.65;;;30.20;69.90;;;-144.05;31.90;125687.94;4943043;29;20033;-90
2022/08/02 14:52:17;;;;;;;5.68;1.63;;;30.10;71.30;;;-144.05;31.72;125687.94;4942898;29;20035;-90
2022/08/02 14:54:45;;;;;;;3.80;1.73;;;29.90;70.00;;;-144.05;31.66;125687.94;4942587;29;20051;-89
2022/08/02 14:57:11;;;;;;;3.17;1.60;;;30.00;69.40;;;-144.05;32.10;125687.94;4943123;29;20085;-89
2022/08/02 14:59:37;;;;;;;1.92;1.38;;;29.80;70.40;;;-144.05;31.78;125687.94;4958574;29;20485;-90
2022/08/02 15:02:03;;;;;;;2.25;1.50;;;29.80;70.00;;;-144.05;30.98;125687.94;4942258;29;20034;-88
2022/08/02 15:04:32;;;;;;;2.53;1.60;;;29.80;67.90;;;-144.05;31.58;125687.94;4942889;29;20535;-90
2022/08/02 15:07:00;;;;;;;3.33;1.70;;;29.80;70.40;;;-144.05;30.80;125687.94;4943640;29;20031;-89
2022/08/02 15:09:27;;;;;;;4.38;1.50;;;29.80;67.40;;;-144.05;31.47;125687.94;4942066;29;20031;-89
2022/08/02 15:11:54;;;;;;;2.63;1.63;;;29.70;69.20;;;-144.05;31.76;125687.94;4942848;29;20034;-90
2022/08/02 15:14:21;;;;;;;4.13;1.48;;;29.80;70.30;;;-144.05;31.39;125687.94;4923881;29;20039;-90
2022/08/02 15:16:48;;;;;;;3.17;1.55;;;29.80;68.70;;;-144.05;30.99;125687.94;4940304;29;20027;-89
2022/08/02 15:19:14;;;;;;;2.65;1.35;;;29.70;67.90;;;-144.05;31.26;125687.94;4922540;29;20039;-89
2022/08/02 15:21:40;;;;;;;3.33;1.88;;;29.70;69.40;;;-144.05;31.36;125687.94;4921582;29;20039;-89
2022/08/02 15:24:09;;;;;;;4.07;1.42;;;29.60;67.50;;;-144.05;31.62;125687.94;4922309;29;20035;-90
2022/08/02 15:26:35;;;;;;;3.47;1.67;;;29.60;70.60;;;-144.05;31.41;125687.94;4921754;29;20040;-90
2022/08/02 15:29:01;;;;;;;2.70;1.40;;;29.60;69.40;;;-144.05;31.62;125687.94;4937447;29;20245;-90
2022/08/02 15:31:27;;;;;;;3.03;1.60;;;29.50;69.20;;;-144.05;31.58;125687.94;4921672;29;20079;-90
2022/08/02 15:33:53;;;;;;;2.05;1.70;;;29.50;69.40;;;-144.05;32.24;125687.94;4921084;29;20616;-90
2022/08/02 15:36:21;;;;;;;2.15;1.30;;;29.40;70.50;;;-144.05;31.93;125687.94;4921611;29;20062;-88
2022/08/02 15:38:47;;;;;;;3.08;1.90;;;29.40;70.60;;;-144.05;32.57;125687.94;4921713;29;20034;-90
2022/08/02 15:41:14;;;;;;;2.30;1.30;;;29.30;71.50;;;-144.05;32.58;125687.94;4921371;29;20127;-90
2022/08/02 15:43:40;;;;;;;2.30;1.48;;;29.20;71.30;;;-144.05;32.23;125687.94;4938679;29;20045;-91
2022/08/02 15:46:06;;;;;;;2.53;1.85;;;29.10;70.70;;;-144.05;33.03;125687.94;4921528;29;20087;-89
2022/08/02 15:48:32;;;;;;;3.15;1.42;;;29.00;72.00;;;-144.05;32.88;125687.94;4921851;29;20123;-90
2022/08/02 15:50:58;;;;;;;2.40;1.42;;;28.90;71.60;;;-144.05;32.76;125687.94;4922465;29;20123;-90
2022/08/02 15:53:24;;;;;;;2.35;1.80;;;28.90;72.30;;;-144.05;33.28;125687.94;4922242;29;20063;-90
2022/08/02 15:55:50;;;;;;;4.03;1.50;;;28.90;73.40;;;-144.05;33.35;125687.94;4921339;29;20043;-90
2022/08/02 15:58:17;;;;;;;8.13;1.60;;;28.90;73.70;;;-144.05;33.10;125687.94;4922083;29;20024;-87
2022/08/02 16:00:43;;;;;;;2.08;1.52;;;28.90;72.80;;;-144.05;33.66;125687.94;4922962;29;20116;-90
2022/08/02 16:03:09;;;;;;;4.57;1.42;;;28.90;74.30;;;-144.05;33.21;125687.94;4923065;29;20504;-88
2022/08/02 16:05:36;;;;;;;3.22;1.60;;;28.90;74.00;;;-144.05;33.74;125687.94;4923803;29;20054;-89
2022/08/02 16:08:02;;;;;;;3.35;1.80;;;28.90;75.30;;;-144.05;33.13;125687.94;4921650;29;20106;-89
2022/08/02 16:10:28;;;;;;;1.95;1.40;;;28.80;73.60;;;-144.05;33.96;125687.94;4920278;29;20034;-89
2022/08/02 16:13:48;;;;;;;3.15;1.70;;;28.50;73.70;;;-144.05;34.03;125687.94;4943124;29;20050;-90
2022/08/02 16:15:40;;;;;;;;;;;28.50;75.00;;;-144.05;34.66;125687.94;4956362;29;20043;-87
2022/08/02 16:18:06;;;;;;;;;;;28.40;77.00;;;-144.05;34.76;125687.94;4955973;29;20044;-90
2022/08/02 16:20:35;;;;;;;2.75;1.75;;;28.40;76.70;;;-144.05;34.48;125687.94;4954428;29;20380;-89
2022/08/02 16:23:02;;;;;;;2.97;1.83;;;28.20;75.40;;;-144.05;34.81;125687.94;4938850;29;20500;-90
2022/08/02 16:25:28;;;;;;;4.43;2.10;;;28.10;77.00;;;-144.05;35.18;125687.94;4938701;29;20135;-89
2022/08/02 16:27:53;;;;;;;3.53;1.80;;;28.10;78.00;;;-144.05;35.30;125687.94;4939048;29;20099;-88
2022/08/02 16:30:19;;;;;;;4.20;2.03;;;28.10;78.30;;;-144.05;35.34;125687.94;4952715;28;20019;-88
2022/08/02 16:32:45;;;;;;;5.40;1.75;;;28.00;78.90;;;-144.05;35.28;125687.94;4969112;28;20085;-90
2022/08/02 16:35:11;;;;;;;3.70;1.83;;;28.00;78.20;;;-144.05;35.43;125687.94;4940154;29;20023;-90
2022/08/02 16:37:44;;;;;;;2.85;1.70;;;27.90;77.80;;;-144.05;35.51;125687.94;4939331;29;20082;-90
2022/08/02 16:40:14;;;;;;;1.75;1.45;;;27.90;78.60;;;-144.05;35.62;125687.94;4938800;29;20034;-91
2022/08/02 16:42:51;;;;;;;4.03;1.80;;;27.80;79.60;;;-144.05;35.65;125687.94;4955662;29;20108;-91
2022/08/02 16:45:19;;;;;;;4.10;1.70;;;27.80;80.50;;;-144.05;35.31;125687.94;4939024;29;20033;-88
2022/08/02 16:47:45;;;;;;;3.03;1.52;;;27.80;79.00;;;-144.05;35.45;125687.94;4939825;29;20039;-90
2022/08/02 16:50:11;;;;;;;2.80;2.00;;;27.70;79.40;;;-144.05;35.63;125687.94;4939852;29;20086;-90
2022/08/02 16:52:38;;;;;;;3.85;1.60;;;27.80;80.10;;;-144.05;36.20;125687.94;4939959;29;20405;-90
2022/08/02 16:55:05;;;;;;;4.55;1.80;;;27.80;81.70;;;-144.05;36.00;125687.94;4940039;29;20031;-90
2022/08/02 16:57:33;;;;;;;4.07;1.83;;;27.70;81.50;;;-144.05;35.88;125687.94;4939855;29;20401;-90
2022/08/02 16:59:59;;;;;;;2.55;1.73;;;27.70;81.20;;;-144.05;35.55;125687.94;4940461;29;20020;-90
2022/08/02 17:02:27;;;;;;;2.40;1.63;;;27.70;80.10;;;-144.05;35.67;125687.94;4939629;29;20046;-90
2022/08/02 17:04:54;;;;;;;3.70;1.52;;;27.60;80.40;;;-144.05;36.02;125687.94;4940152;29;20042;-90
2022/08/02 17:07:20;;;;;;;5.20;1.70;;;27.50;81.10;;;-144.05;36.23;125687.94;4939707;29;20042;-90
2022/08/02 17:09:48;;;;;;;4.18;1.77;;;27.50;82.10;;;-144.05;36.10;125687.94;4957006;29;20035;-89
2022/08/02 17:12:14;;;;;;;3.65;1.48;;;27.50;81.50;;;-144.05;35.70;125687.94;4937897;29;20035;-89
2022/08/02 17:14:39;;;;;;;2.90;1.55;;;27.40;80.00;;;-144.05;35.94;125687.94;4920784;29;20605;-89
2022/08/02 17:17:19;;;;;;;2.45;1.40;;;27.40;80.80;;;-144.05;35.69;125687.94;4936341;29;20031;-90
2022/08/02 17:24:08;;;;;;;1.55;1.33;;;27.40;79.70;;;-144.05;35.57;125687.94;4839115;29;20138;-89
2022/08/02 17:26:37;;;;;;;5.57;1.83;;;27.30;80.40;;;-144.05;36.41;125687.94;4936094;29;20031;-89
2022/08/02 17:29:05;;;;;;;3.63;1.63;;;27.20;82.70;;;-144.05;36.59;125687.94;4919811;29;20099;-89
2022/08/02 17:31:31;;;;;;;2.95;1.27;;;27.00;83.20;;;-144.05;36.44;125687.94;4920412;29;20395;-89
2022/08/02 17:33:57;;;;;;;1.58;1.45;;;26.90;82.20;;;-144.05;36.85;125687.94;4920025;29;20020;-90
2022/08/02 17:36:22;;;;;;;7.70;1.75;;;26.80;83.40;;;-144.05;36.54;125687.94;4921244;29;20035;-90
2022/08/02 17:38:48;;;;;;;2.72;1.40;;;26.80;82.40;;;-144.05;36.42;125687.94;4919143;29;20063;-91
2022/08/02 17:41:14;;;;;;;4.00;1.40;;;26.70;83.00;;;-144.05;36.54;125687.94;4919607;29;20032;-90
2022/08/02 17:43:40;;;;;;;3.75;1.40;;;26.70;83.00;;;-144.05;36.96;125687.94;4920121;29;20090;-90
2022/08/02 17:46:06;;;;;;;3.05;1.20;;;26.60;84.60;;;-144.05;36.82;125687.94;4922218;29;20434;-90
2022/08/02 17:51:24;;;;;;;6.05;1.50;;;26.60;84.00;;;-144.05;36.94;125687.94;4943318;29;20046;-90
2022/08/02 17:53:54;;;;;;;5.20;1.35;;;26.70;84.00;;;-144.05;36.92;125687.94;4926914;29;20404;-90
2022/08/02 17:56:20;;;;;;;2.88;1.42;;;26.60;84.30;;;-144.05;36.79;125687.94;4945092;29;20039;-87
2022/08/02 17:58:46;;;;;;;1.70;1.40;;;26.50;84.10;;;-144.05;37.00;125687.94;4927336;29;20119;-89
2022/08/02 18:01:12;;;;;;;1.88;1.10;;;26.50;84.70;;;-144.05;37.45;125687.94;4926295;29;20031;-89
2022/08/02 18:03:38;;;;;;;4.43;1.33;;;26.40;86.00;;;-144.05;37.39;125687.94;4925390;29;20075;-89
2022/08/02 18:06:04;;;;;;;2.25;1.30;;;26.30;86.10;;;-144.05;37.66;125687.94;4926195;29;20028;-91
2022/08/02 18:08:33;;;;;;;4.05;1.50;;;26.20;86.80;;;-144.05;37.65;125687.94;4925932;29;20036;-91
2022/08/02 18:10:59;;;;;;;2.03;1.05;;;26.20;87.30;;;-144.05;37.94;125687.94;4926389;29;20075;-90
2022/08/02 18:13:25;;;;;;;1.73;1.15;;;26.10;88.10;;;-144.05;38.25;125687.94;4939754;29;20042;-90
2022/08/02 18:15:52;;;;;;;3.50;1.35;;;26.00;89.60;;;-144.05;38.42;125687.94;4945963;29;20408;-91
2022/08/02 18:18:21;;;;;;;2.40;1.52;;;25.90;90.00;;;-144.05;38.94;125687.94;4944905;29;20028;-90
2022/08/02 18:20:47;;;;;;;5.55;1.38;;;25.80;90.50;;;-144.05;39.01;125687.94;4946036;29;20051;-90
2022/08/02 18:23:13;;;;;;;2.05;1.40;;;25.60;90.90;;;-144.05;39.31;125687.94;4945186;29;20580;-90
2022/08/02 18:25:40;;;;;;;4.05;1.30;;;25.50;91.40;;;-144.05;39.47;125687.94;4943926;29;20031;-91
2022/08/02 18:28:09;;;;;;;2.25;0.98;;;25.40;91.90;;;-144.05;39.70;125687.94;4943998;29;20035;-89
2022/08/02 18:30:35;;;;;;;1.70;1.52;;;25.30;92.40;;;-144.05;39.96;125687.94;4946398;29;20067;-92
2022/08/02 18:33:22;;;;;;;4.35;1.23;;;25.20;92.80;;;-144.05;40.39;125687.94;4947697;29;20038;-89
2022/08/02 18:35:56;;;;;;;1.48;1.38;;;25.10;93.90;;;-144.05;40.71;125687.94;4951850;28;20137;-90
2022/08/02 18:38:24;;;;;;;2.65;1.38;;;25.00;94.70;;;-144.05;40.88;125687.94;4964203;28;20074;-88
2022/08/02 18:41:27;;;;;;;1.75;1.30;;;24.90;95.30;;;-144.05;40.96;125687.94;4945970;29;20055;-91
2022/08/02 18:44:47;;;;;;;1.63;1.40;;;24.80;96.40;;;-144.05;41.28;125687.94;4946221;29;20144;-91
2022/08/02 18:47:44;;;;;;;2.13;1.30;;;24.70;97.00;;;-144.05;41.48;125687.94;4943974;29;20042;-92
2022/08/02 18:50:23;;;;;;;4.50;1.40;;;24.60;98.40;;;-144.05;41.71;125687.94;4946144;29;20031;-91
2022/08/02 18:53:27;;;;;;;2.78;1.65;;;24.50;99.30;;;-144.05;42.08;125687.94;4946898;29;20035;-91
2022/08/02 18:56:34;;;;;;;3.05;1.70;;;24.40;99.90;;;-144.05;42.43;125687.94;4934396;29;20390;-90
2022/08/02 18:59:20;;;;;;;;;;;24.30;99.90;;;-144.05;42.55;125687.94;4943962;29;20504;-92
2022/08/02 19:02:18;;;;;;;;;;;;;;;;;;;;;
2022/08/02 19:05:10;;;;;;;2.00;1.52;;;24.00;99.90;;;-144.05;42.83;125687.94;4961556;29;20095;-91
2022/08/02 19:08:35;;;;;;;1.88;1.40;;;24.10;99.90;;;-144.05;43.13;125687.94;4946704;29;20038;-91
2022/08/02 19:11:08;;;;;;;2.40;1.60;;;24.00;99.90;;;-144.05;43.13;125687.94;4950064;29;20059;-92
2022/08/02 19:13:34;;;;;;;2.78;1.55;;;24.00;99.90;;;-144.05;43.17;125687.94;4942753;29;20027;-93
2022/08/02 19:16:35;;;;;;;;;;;;;;;;;;;;;
2022/08/02 19:19:19;;;;;;;1.77;1.38;;;23.90;99.90;;;-144.05;43.47;125687.94;4960831;29;20106;-91
2022/08/02 19:21:50;;;;;;;2.42;1.40;;;23.70;99.90;;;-144.05;43.96;125687.94;4943351;29;20039;-92
2022/08/02 19:24:35;;;;;;;2.10;1.27;;;23.60;99.90;;;-144.05;44.22;125687.94;4942034;29;20050;-91
2022/08/02 19:27:08;;;;;;;2.35;1.50;;;23.50;99.90;;;-144.05;45.12;125687.94;4942975;29;20412;-92
2022/08/02 19:29:36;;;;;;;2.65;1.65;;;23.30;99.90;;;-144.05;45.43;125687.94;4944596;29;20121;-90
2022/08/02 19:32:03;;;;;;;2.85;1.83;;;23.20;99.90;;;-144.05;45.93;125687.94;4940829;29;20489;-89
2022/08/02 19:34:29;;;;;;;3.00;1.95;;;23.10;99.90;;;-144.05;46.45;125687.94;4940110;29;20119;-89
2022/08/02 19:36:58;;;;;;;3.83;2.05;;;22.90;99.90;;;-144.05;46.81;125687.94;4940071;29;20028;-91
2022/08/02 19:39:24;;;;;;;4.25;1.50;;;22.80;99.90;;;-144.05;47.98;125687.94;4939471;29;20122;-90
2022/08/02 19:41:51;;;;;;;1.77;1.23;;;22.70;99.90;;;-144.05;48.62;125687.94;4939839;29;20050;-90
2022/08/02 19:44:17;;;;;;;4.15;1.85;;;22.60;99.90;;;-144.05;49.11;125687.94;4941623;29;20035;-90
2022/08/02 19:46:46;;;;;;;3.35;2.05;;;22.50;99.90;;;-144.05;49.57;125687.94;4939341;29;20030;-90
2022/08/02 19:49:15;;;;;;;2.10;1.50;;;22.40;99.90;;;-144.05;50.13;125687.94;4939616;29;20027;-90
2022/08/02 19:51:48;;;;;;;5.43;1.73;;;22.30;99.90;;;-144.05;50.94;125687.94;4939213;29;20031;-89
2022/08/02 19:54:17;;;;;;;2.13;1.50;;;22.20;99.90;;;-144.05;51.13;125687.94;4939577;29;20032;-92
2022/08/02 19:56:49;;;;;;;2.78;1.75;;;22.20;99.90;;;-144.05;51.77;125687.94;4939834;29;20118;-90
2022/08/02 19:59:18;;;;;;;2.78;1.35;;;22.10;99.90;;;-144.05;51.41;125687.94;4938599;29;20383;-90
2022/08/02 20:01:45;;;;;;;2.50;1.70;;;22.10;99.90;;;-144.05;51.28;125687.94;4939654;29;20058;-90
2022/08/02 20:04:11;;;;;;;3.28;1.70;;;22.00;99.90;;;-144.05;51.97;125687.94;4939536;29;20038;-90
2022/08/02 20:06:40;;;;;;;2.05;1.42;;;21.90;99.90;;;-144.05;52.22;125687.94;4940273;29;20141;-90
2022/08/02 20:09:06;;;;;;;3.42;1.85;;;21.80;99.90;;;-144.05;52.08;125687.94;4938172;29;20034;-91
2022/08/02 20:11:32;;;;;;;2.65;1.70;;;21.90;99.90;;;-144.05;51.63;125687.94;4939035;29;20034;-90
2022/08/02 20:13:58;;;;;;;4.20;2.08;;;21.90;99.90;;;-144.05;51.35;125687.94;4923531;29;20047;-91
2022/08/02 20:16:24;;;;;;;3.72;2.30;;;21.90;99.90;;;-144.05;51.28;125687.94;4921452;29;20122;-92
2022/08/02 20:18:50;;;;;;;3.95;2.22;;;22.10;99.90;;;-144.05;51.52;125687.94;4919953;29;20402;-92
2022/08/02 20:21:25;;;;;;;5.15;2.38;;;22.10;99.90;;;-144.05;52.08;125687.94;4920141;29;20054;-91
2022/08/02 20:24:02;;;;;;;6.15;2.45;;;22.20;99.90;;;-144.05;52.08;125687.94;4921120;29;20067;-91
2022/08/02 20:26:52;;;;;;;3.45;2.30;;;22.10;99.90;;;-144.05;52.10;125687.94;4920519;29;20075;-91
2022/08/02 20:29:18;;;;;;;3.08;2.00;;;22.10;99.90;;;-144.05;52.53;125687.94;4919252;29;20556;-89
2022/08/02 20:31:44;;;;;;;3.63;2.47;;;22.00;99.90;;;-144.05;52.74;125687.94;4920154;29;20039;-90
2022/08/02 20:34:10;;;;;;;6.30;2.63;;;22.00;99.90;;;-144.05;52.91;125687.94;4920262;29;20035;-90
2022/08/02 20:36:42;;;;;;;4.68;2.42;;;21.90;99.90;;;-144.05;53.18;125687.94;4921082;29;20038;-90
2022/08/02 20:39:08;;;;;;;3.15;2.20;;;21.90;99.90;;;-144.05;53.42;125687.94;4920381;29;20082;-89
2022/08/02 20:41:39;;;;;;;4.10;2.80;;;21.80;99.90;;;-144.05;53.52;125687.94;4927173;28;20088;-90
2022/08/02 20:44:05;;;;;;;3.95;2.22;;;21.80;99.90;;;-144.05;53.78;125687.94;4941981;28;20039;-91
2022/08/02 20:46:31;;;;;;;3.42;2.50;;;21.70;99.90;;;-144.05;54.03;125687.94;4921730;29;20028;-89
2022/08/02 20:48:57;;;;;;;4.95;2.30;;;21.60;99.90;;;-144.05;54.42;125687.94;4920234;29;20027;-89
2022/08/02 20:51:26;;;;;;;3.75;2.25;;;21.50;99.90;;;-144.05;54.56;125687.94;4920382;29;20441;-88
2022/08/02 20:53:52;;;;;;;2.97;2.10;;;21.40;99.90;;;-144.05;54.80;125687.94;4920709;29;20039;-90
2022/08/02 20:56:21;;;;;;;4.18;2.25;;;21.40;99.90;;;-144.05;54.95;125687.94;4921345;29;20118;-89
2022/08/02 20:58:47;;;;;;;5.25;2.15;;;21.30;99.90;;;-144.05;54.84;125687.94;4921474;29;20032;-91
2022/08/02 21:01:13;;;;;;;4.22;2.15;;;21.30;99.90;;;-144.05;55.11;125687.94;4921027;29;20043;-88
2022/08/02 21:03:39;;;;;;;2.30;1.80;;;21.20;99.90;;;-144.05;55.13;125687.94;4921159;29;20569;-92
2022/08/02 21:06:10;;;;;;;4.28;2.10;;;21.20;99.90;;;-144.05;55.56;125687.94;4921438;29;20071;-90
2022/08/02 21:08:38;;;;;;;3.60;2.00;;;21.10;99.90;;;-144.05;55.84;125687.94;4919969;29;20027;-91
2022/08/02 21:11:05;;;;;;;3.90;2.30;;;21.10;99.90;;;-144.05;56.15;125687.94;4920444;29;20119;-88
2022/08/02 21:13:36;;;;;;;6.13;2.10;;;21.10;99.90;;;-144.05;56.17;125687.94;4932843;29;20041;-91
2022/08/02 21:16:03;;;;;;;5.10;2.38;;;21.10;99.90;;;-144.05;56.01;125687.94;4940614;29;20118;-90
2022/08/02 21:18:29;;;;;;;5.22;2.33;;;21.10;99.90;;;-144.05;56.11;125687.94;4941114;29;20401;-90
2022/08/02 21:20:55;;;;;;;2.88;2.33;;;21.20;99.90;;;-144.05;55.98;125687.94;4940462;29;20122;-91
2022/08/02 21:23:21;;;;;;;3.10;2.20;;;21.20;99.90;;;-144.05;56.30;125687.94;4941373;29;20039;-89
2022/08/02 21:25:47;;;;;;;5.60;2.50;;;21.20;99.90;;;-144.05;56.47;125687.94;4940576;29;20027;-90
2022/08/02 21:28:13;;;;;;;4.50;2.75;;;21.10;99.90;;;-144.05;56.92;125687.94;4940879;29;20035;-90
2022/08/02 21:30:39;;;;;;;4.93;2.63;;;21.00;99.90;;;-144.05;57.59;125687.94;4940684;29;20081;-90
2022/08/02 21:33:05;;;;;;;6.68;2.92;;;21.00;99.90;;;-144.05;58.37;125687.94;4940446;29;20054;-90
2022/08/02 21:35:31;;;;;;;5.90;2.83;;;20.90;99.90;;;-144.05;59.01;125687.94;4938805;29;20031;-90
2022/08/02 21:37:57;;;;;;;5.80;3.05;;;20.80;99.90;;;-144.05;59.42;125687.94;4939099;29;20079;-90
2022/08/02 21:40:23;;;;;;;3.38;2.58;;;20.70;99.90;;;-144.05;59.87;125687.94;4938888;29;20054;-91
2022/08/02 21:42:49;;;;;;;6.53;2.92;;;20.60;99.90;;;-144.05;59.90;125687.94;4938452;29;20023;-91
2022/08/02 21:45:15;;;;;;;5.53;2.70;;;20.60;99.90;;;-144.05;59.99;125687.94;4954225;29;20037;-91
2022/08/02 21:47:41;;;;;;;4.78;2.72;;;20.60;99.90;;;-144.05;60.23;125687.94;4938677;29;20489;-90
2022/08/02 21:50:08;;;;;;;4.28;2.90;;;20.60;99.90;;;-144.05;60.62;125687.94;4939232;29;20378;-90
2022/08/02 21:52:34;;;;;;;5.10;2.70;;;20.50;99.90;;;-144.05;60.65;125687.94;4940550;29;20031;-89
2022/08/02 21:55:01;;;;;;;4.97;2.83;;;20.50;99.90;;;-144.05;60.81;125687.94;4940398;29;20046;-89
2022/08/02 21:57:27;;;;;;;6.05;2.83;;;20.40;99.90;;;-144.05;60.97;125687.94;4940461;29;20488;-89
2022/08/02 21:59:54;;;;;;;4.25;3.00;;;20.40;99.90;;;-144.05;61.42;125687.94;4939250;29;20031;-89
2022/08/02 22:02:24;;;;;;;5.18;3.10;;;20.40;99.90;;;-144.05;61.47;125687.94;4956492;29;20031;-89
2022/08/02 22:04:51;;;;;;;7.43;3.47;;;20.30;99.90;;;-144.05;61.91;125687.94;4939319;29;20375;-90
2022/08/02 22:07:22;;;;;;;7.78;3.00;;;20.30;99.90;;;-144.05;62.28;125687.94;4939014;29;20038;-88
2022/08/02 22:09:48;;;;;;;4.47;3.63;;;20.20;99.90;;;-144.05;62.82;125687.94;4946095;23;20039;-87
2022/08/02 22:12:16;;;;;;;5.07;3.25;;;20.10;99.90;;;-144.05;62.87;125687.94;4939430;29;20132;-88
2022/08/02 22:14:43;;;;;;;5.70;3.17;;;20.10;99.90;;;-144.05;63.06;125687.94;4954836;29;20202;-87
2022/08/02 22:17:09;;;;;;;5.07;2.90;;;20.00;99.90;;;-144.05;63.07;125687.94;4939461;29;20038;-87
2022/08/02 22:19:36;;;;;;;3.83;3.17;;;20.00;99.90;;;-144.05;63.28;125687.94;4939590;29;20031;-88
2022/08/02 22:22:02;;;;;;;4.88;3.05;;;19.90;99.90;;;-144.05;63.53;125687.94;4956717;29;20027;-88
2022/08/02 22:24:28;;;;;;;6.53;3.30;;;19.80;99.90;;;-144.05;63.75;125687.94;4938802;29;20043;-88
2022/08/02 22:26:54;;;;;;;4.85;2.78;;;19.80;99.90;;;-144.05;63.91;125687.94;4940804;29;20079;-89
2022/08/02 22:29:20;;;;;;;3.63;2.60;;;19.80;99.90;;;-144.05;64.62;125687.94;4947119;29;20038;-90
2022/08/02 22:31:46;;;;;;;5.07;2.72;;;19.70;99.90;;;-144.05;64.59;125687.94;4942821;29;20477;-89
2022/08/02 22:34:12;;;;;;;2.92;2.55;;;19.70;99.90;;;-144.05;64.65;125687.94;4942240;29;20027;-88
2022/08/02 22:36:43;;;;;;;9.38;3.25;;;19.60;99.90;;;-144.05;64.79;125687.94;4958657;29;20055;-88
2022/08/02 22:39:13;;;;;;;4.70;3.00;;;19.60;99.90;;;-144.05;64.89;125687.94;4941763;29;20039;-88
2022/08/02 22:41:39;;;;;;;5.80;2.75;;;19.60;99.90;;;-144.05;65.01;125687.94;4941628;29;20038;-88
2022/08/02 22:44:05;;;;;;;4.43;2.83;;;19.60;99.90;;;-144.05;65.01;125687.94;4941764;29;20032;-85
2022/08/02 22:46:32;;;;;;;4.47;2.40;;;19.60;99.90;;;-144.05;65.21;125687.94;4941782;29;20034;-87
2022/08/02 22:49:00;;;;;;;3.15;2.45;;;19.60;99.90;;;-144.05;65.38;125687.94;4959113;29;20035;-86
2022/08/02 22:51:27;;;;;;;2.60;2.40;;;19.50;99.90;;;-144.05;65.63;125687.94;4941044;29;20162;-87
2022/08/02 22:53:54;;;;;;;5.28;2.65;;;19.50;99.90;;;-144.05;65.85;125687.94;4941819;29;20118;-86
2022/08/02 22:56:21;;;;;;;3.22;2.80;;;19.50;99.90;;;-144.05;65.96;125687.94;4961614;29;20038;-84
2022/08/02 22:58:47;;;;;;;3.92;2.72;;;19.40;99.90;;;-144.05;66.22;125687.94;4961755;29;20039;-90
2022/08/02 23:01:13;;;;;;;6.93;2.85;;;19.40;99.90;;;-144.05;66.46;125687.94;4973127;29;20125;-88
2022/08/02 23:03:40;;;;;;;4.70;2.58;;;19.30;99.90;;;-144.05;66.75;125687.94;4942014;29;20119;-89
2022/08/02 23:06:07;;;;;;;6.60;2.75;;;19.30;99.90;;;-144.05;66.71;125687.94;4941682;29;20126;-88
2022/08/02 23:08:35;;;;;;;4.57;3.03;;;19.30;99.90;;;-144.05;66.95;125687.94;4959243;29;20034;-89
2022/08/02 23:11:03;;;;;;;4.90;2.90;;;19.30;99.90;;;-144.05;67.13;125687.94;4941181;29;20467;-88
2022/08/02 23:13:32;;;;;;;3.75;2.60;;;19.20;99.90;;;-144.05;67.47;125687.94;4930192;29;20028;-90
2022/08/02 23:21:31;;;;;;;4.03;2.60;;;19.10;99.90;;;-144.05;68.03;125687.94;4939400;29;20114;-88
2022/08/02 23:23:58;;;;;;;4.88;2.80;;;19.10;99.90;;;-144.05;68.07;125687.94;4922130;29;20613;-89
2022/08/02 23:26:25;;;;;;;4.90;2.70;;;19.00;99.90;;;-144.05;68.71;125687.94;4922055;29;20035;-87
2022/08/02 23:28:51;;;;;;;3.38;2.42;;;19.00;99.90;;;-144.05;68.58;125687.94;4921451;29;20028;-87
2022/08/02 23:31:36;;;;;;;4.68;2.28;;;18.90;99.90;;;-144.05;69.18;125687.94;4921867;29;20035;-86
2022/08/02 23:34:04;;;;;;;3.75;2.58;;;18.90;99.90;;;-144.05;69.31;125687.94;4939231;29;20362;-88
2022/08/02 23:36:31;;;;;;;8.90;3.22;;;18.90;99.90;;;-144.05;69.88;125687.94;4938864;29;20174;-87
2022/08/02 23:38:58;;;;;;;3.75;2.70;;;18.80;99.90;;;-144.05;69.80;125687.94;4921342;29;20028;-86
2022/08/02 23:41:25;;;;;;;7.88;2.60;;;18.80;99.90;;;-144.05;70.12;125687.94;4921519;29;20020;-89
2022/08/02 23:43:52;;;;;;;5.55;2.90;;;18.80;99.90;;;-144.05;70.68;125687.94;4921797;29;20047;-88
2022/08/02 23:46:18;;;;;;;5.70;2.53;;;18.70;99.90;;;-144.05;70.60;125687.94;4921103;29;20074;-88